createdAt,value
2022-11-09T00:01:05.669Z,18.52
2022-11-09T00:02:07.912Z,18.15
2022-11-09T00:03:10.860Z,18.75
2022-11-09T00:04:12.833Z,18.17
2022-11-09T00:05:15.011Z,18.98
2022-11-09T00:06:17.493Z,18.85
2022-11-09T00:07:19.619Z,18.73
2022-11-09T00:08:21.707Z,18.67
2022-11-09T00:09:25.127Z,18.38
2022-11-09T00:10:28.031Z,19.20
2022-11-09T00:11:30.653Z,19.02
2022-11-09T00:12:32.616Z,18.90
2022-11-09T00:13:39.619Z,19.17
2022-11-09T00:14:42.010Z,18.90
2022-11-09T00:15:43.948Z,18.90
2022-11-09T00:16:48.705Z,18.65
2022-11-09T00:17:50.784Z,17.92
2022-11-09T00:18:53.974Z,18.67
2022-11-09T00:19:56.186Z,18.30
2022-11-09T00:20:58.555Z,19.08
2022-11-09T00:22:00.598Z,18.25
2022-11-09T00:23:06.191Z,18.27
2022-11-09T00:24:09.292Z,19.27
2022-11-09T00:25:11.318Z,19.05
2022-11-09T00:26:16.731Z,18.17
2022-11-09T00:27:18.836Z,17.88
2022-11-09T00:28:22.053Z,19.25
2022-11-09T00:29:24.180Z,18.55
2022-11-09T00:30:27.796Z,18.00
2022-11-09T00:31:29.969Z,19.38
2022-11-09T00:32:32.382Z,18.95
2022-11-09T00:33:34.573Z,18.65
2022-11-09T00:34:36.881Z,18.95
2022-11-09T00:35:40.444Z,18.50
2022-11-09T00:36:42.740Z,19.83
2022-11-09T00:37:46.091Z,17.55
2022-11-09T00:38:50.790Z,18.33
2022-11-09T00:39:52.804Z,18.70
2022-11-09T00:41:02.237Z,17.67
2022-11-09T00:42:09.611Z,17.55
2022-11-09T00:43:15.261Z,19.35
2022-11-09T00:44:18.539Z,17.95
2022-11-09T00:45:20.603Z,19.25
2022-11-09T00:46:22.851Z,19.45
2022-11-09T00:47:30.437Z,18.35
2022-11-09T00:48:33.378Z,18.02
2022-11-09T00:49:37.238Z,18.80
2022-11-09T00:50:39.572Z,18.83
2022-11-09T00:51:41.585Z,17.33
2022-11-09T00:52:43.764Z,19.02
2022-11-09T00:53:48.530Z,19.45
2022-11-09T00:54:51.882Z,19.92
2022-11-09T00:55:56.034Z,18.73
2022-11-09T00:56:58.302Z,19.60
2022-11-09T00:58:01.726Z,19.35
2022-11-09T00:59:04.856Z,18.83
2022-11-09T01:00:08.520Z,20.52
2022-11-09T01:01:13.706Z,18.90
2022-11-09T01:02:17.570Z,18.95
2022-11-09T01:03:20.907Z,20.52
2022-11-09T01:04:27.229Z,18.25
2022-11-09T01:05:29.170Z,19.23
2022-11-09T01:06:33.741Z,19.63
2022-11-09T01:07:38.460Z,19.13
2022-11-09T01:08:41.183Z,19.15
2022-11-09T01:09:44.895Z,19.05
2022-11-09T01:10:48.614Z,19.15
2022-11-09T01:11:51.623Z,20.48
2022-11-09T01:12:57.059Z,19.45
2022-11-09T01:14:00.785Z,20.17
2022-11-09T01:15:06.676Z,20.33
2022-11-09T01:16:13.138Z,20.02
2022-11-09T01:17:15.874Z,19.40
2022-11-09T01:18:20.481Z,20.55
2022-11-09T01:19:22.693Z,20.58
2022-11-09T01:20:28.071Z,18.90
2022-11-09T01:21:30.183Z,19.90
2022-11-09T01:22:36.346Z,19.85
2022-11-09T01:23:39.614Z,19.63
2022-11-09T01:24:41.684Z,19.92
2022-11-09T01:25:45.366Z,19.75
2022-11-09T01:26:49.501Z,18.73
2022-11-09T01:27:51.648Z,20.23
2022-11-09T01:28:55.069Z,18.98
2022-11-09T01:29:58.374Z,19.33
2022-11-09T01:31:05.210Z,19.67
2022-11-09T01:32:08.866Z,20.88
2022-11-09T01:33:12.359Z,19.90
2022-11-09T01:34:14.338Z,20.63
2022-11-09T01:35:17.985Z,21.10
2022-11-09T01:36:23.007Z,19.95
2022-11-09T01:37:24.984Z,20.27
2022-11-09T01:38:27.024Z,20.77
2022-11-09T01:39:28.976Z,20.98
2022-11-09T01:40:32.762Z,20.52
2022-11-09T01:41:34.833Z,21.40
2022-11-09T01:42:39.955Z,21.05
2022-11-09T01:43:42.725Z,21.08
2022-11-09T01:44:44.662Z,21.15
2022-11-09T01:46:32.187Z,20.52
2022-11-09T01:47:34.862Z,20.40
2022-11-09T01:48:47.047Z,20.02
2022-11-09T01:50:00.398Z,20.95
2022-11-09T01:51:09.487Z,19.55
2022-11-09T01:52:32.261Z,20.85
2022-11-09T01:53:39.598Z,20.58
2022-11-09T01:55:55.040Z,19.98
2022-11-09T01:57:01.475Z,21.08
2022-11-09T01:58:07.829Z,20.75
2022-11-09T01:59:14.880Z,21.45
2022-11-09T02:00:19.901Z,21.52
2022-11-09T02:01:22.687Z,20.55
2022-11-09T02:02:25.350Z,21.50
2022-11-09T02:03:36.547Z,21.15
2022-11-09T02:04:53.504Z,20.33
2022-11-09T02:06:01.746Z,20.65
2022-11-09T02:07:05.250Z,19.85
2022-11-09T02:08:08.943Z,21.27
2022-11-09T02:09:23.963Z,20.67
2022-11-09T02:11:01.469Z,21.42
2022-11-09T02:12:06.776Z,20.65
2022-11-09T02:13:12.807Z,21.35
2022-11-09T02:14:16.070Z,19.90
2022-11-09T02:15:21.895Z,21.35
2022-11-09T02:16:26.685Z,21.67
2022-11-09T02:17:29.933Z,20.33
2022-11-09T02:18:34.238Z,21.60
2022-11-09T02:19:37.159Z,21.45
2022-11-09T02:20:54.524Z,21.58
2022-11-09T02:21:59.356Z,20.52
2022-11-09T02:23:01.774Z,20.42
2022-11-09T02:24:05.301Z,20.98
2022-11-09T02:25:11.346Z,21.92
2022-11-09T02:26:30.750Z,21.13
2022-11-09T02:27:32.802Z,21.43
2022-11-09T02:28:38.602Z,21.83
2022-11-09T02:29:48.576Z,20.63
2022-11-09T02:30:54.710Z,20.65
2022-11-09T02:32:02.687Z,21.00
2022-11-09T02:33:05.935Z,22.13
2022-11-09T02:34:28.350Z,22.80
2022-11-09T02:35:30.487Z,21.00
2022-11-09T02:36:32.624Z,21.48
2022-11-09T02:37:40.614Z,21.95
2022-11-09T02:38:45.370Z,23.15
2022-11-09T02:39:50.985Z,21.00
2022-11-09T02:40:53.337Z,22.15
2022-11-09T02:42:16.950Z,22.35
2022-11-09T02:43:23.631Z,22.60
2022-11-09T02:44:31.710Z,21.63
2022-11-09T02:45:34.183Z,21.20
2022-11-09T02:46:40.518Z,22.30
2022-11-09T02:47:43.983Z,21.02
2022-11-09T02:48:46.013Z,21.35
2022-11-09T02:49:48.142Z,21.00
2022-11-09T02:50:50.220Z,21.48
2022-11-09T02:51:53.362Z,21.25
2022-11-09T02:52:55.462Z,21.48
2022-11-09T02:53:59.560Z,20.95
2022-11-09T02:55:05.146Z,20.45
2022-11-09T02:56:08.542Z,19.17
2022-11-09T02:57:11.016Z,20.20
2022-11-09T02:58:13.720Z,21.67
2022-11-09T02:59:16.264Z,20.30
2022-11-09T03:00:19.818Z,19.58
2022-11-09T03:01:22.262Z,19.40
2022-11-09T03:02:25.628Z,19.98
2022-11-09T03:03:28.419Z,18.65
2022-11-09T03:04:30.476Z,19.20
2022-11-09T03:05:32.854Z,19.40
2022-11-09T03:06:35.638Z,19.27
2022-11-09T03:07:44.000Z,19.52
2022-11-09T03:08:46.980Z,20.40
2022-11-09T03:09:52.512Z,18.05
2022-11-09T03:10:56.975Z,18.33
2022-11-09T03:12:20.428Z,19.20
2022-11-09T03:13:22.753Z,19.42
2022-11-09T03:14:25.210Z,17.95
2022-11-09T03:15:32.936Z,19.05
2022-11-09T03:16:36.285Z,18.20
2022-11-09T03:17:40.717Z,18.73
2022-11-09T03:18:42.944Z,18.48
2022-11-09T03:19:48.230Z,18.13
2022-11-09T03:20:51.055Z,18.52
2022-11-09T03:21:54.119Z,18.00
2022-11-09T03:23:00.171Z,18.45
2022-11-09T03:24:04.990Z,17.05
2022-11-09T03:25:10.394Z,17.20
2022-11-09T03:26:12.924Z,18.73
2022-11-09T03:27:15.721Z,17.40
2022-11-09T03:28:19.717Z,18.27
2022-11-09T03:29:23.290Z,17.08
2022-11-09T03:30:25.563Z,17.55
2022-11-09T03:31:28.409Z,15.77
2022-11-09T03:32:32.008Z,16.65
2022-11-09T03:33:38.360Z,16.42
2022-11-09T03:34:41.116Z,16.48
2022-11-09T03:35:44.392Z,17.45
2022-11-09T03:36:48.930Z,16.63
2022-11-09T03:37:52.507Z,16.75
2022-11-09T03:38:54.907Z,16.80
2022-11-09T03:39:57.533Z,15.65
2022-11-09T03:41:01.443Z,16.48
2022-11-09T03:42:04.719Z,15.52
2022-11-09T03:43:08.970Z,16.17
2022-11-09T03:44:11.137Z,15.90
2022-11-09T03:45:14.482Z,15.18
2022-11-09T03:46:16.513Z,15.05
2022-11-09T03:47:18.507Z,16.17
2022-11-09T03:48:20.565Z,15.45
2022-11-09T03:49:24.010Z,14.88
2022-11-09T03:50:30.939Z,15.10
2022-11-09T03:51:33.351Z,14.80
2022-11-09T03:52:35.942Z,15.32
2022-11-09T03:53:38.344Z,15.07
2022-11-09T03:54:43.402Z,15.15
2022-11-09T03:55:45.612Z,16.02
2022-11-09T03:56:47.923Z,14.98
2022-11-09T03:57:52.367Z,14.95
2022-11-09T03:58:57.912Z,15.45
2022-11-09T04:00:00.628Z,15.20
2022-11-09T04:01:03.231Z,14.45
2022-11-09T04:02:05.693Z,16.08
2022-11-09T04:03:07.844Z,16.02
2022-11-09T04:04:10.295Z,15.15
2022-11-09T04:05:12.501Z,15.18
2022-11-09T04:06:14.451Z,15.80
2022-11-09T04:07:17.978Z,15.93
2022-11-09T04:08:20.177Z,15.55
2022-11-09T04:09:22.973Z,16.08
2022-11-09T04:10:26.584Z,16.08
2022-11-09T04:11:28.579Z,15.75
2022-11-09T04:12:30.720Z,16.55
2022-11-09T04:13:32.942Z,16.23
2022-11-09T04:14:35.173Z,17.27
2022-11-09T04:15:37.216Z,17.38
2022-11-09T04:16:39.493Z,16.65
2022-11-09T04:17:41.475Z,16.40
2022-11-09T04:18:43.987Z,15.95
2022-11-09T04:19:45.997Z,15.73
2022-11-09T04:20:47.946Z,16.50
2022-11-09T04:21:52.260Z,16.88
2022-11-09T04:23:01.162Z,17.15
2022-11-09T04:24:04.993Z,17.13
2022-11-09T04:25:07.211Z,16.55
2022-11-09T04:26:09.348Z,16.00
2022-11-09T04:27:11.483Z,15.95
2022-11-09T04:28:13.702Z,15.90
2022-11-09T04:29:15.725Z,16.20
2022-11-09T04:30:17.695Z,17.38
2022-11-09T04:31:24.245Z,16.38
2022-11-09T04:32:32.027Z,17.13
2022-11-09T04:33:34.078Z,16.08
2022-11-09T04:34:37.838Z,15.73
2022-11-09T04:35:39.940Z,16.50
2022-11-09T04:36:42.106Z,16.48
2022-11-09T04:37:44.213Z,16.77
2022-11-09T04:38:46.865Z,17.52
2022-11-09T04:39:48.853Z,16.75
2022-11-09T04:40:50.942Z,16.20
2022-11-09T04:41:53.114Z,16.10
2022-11-09T04:42:55.416Z,17.52
2022-11-09T04:43:59.507Z,16.58
2022-11-09T04:45:02.854Z,16.40
2022-11-09T04:46:05.882Z,17.25
2022-11-09T04:47:07.942Z,17.73
2022-11-09T04:48:11.126Z,16.33
2022-11-09T04:49:13.482Z,16.67
2022-11-09T04:50:16.648Z,17.15
2022-11-09T04:51:18.705Z,16.88
2022-11-09T04:52:20.710Z,18.05
2022-11-09T04:53:22.787Z,17.73
2022-11-09T04:54:27.260Z,17.25
2022-11-09T04:55:29.357Z,17.05
2022-11-09T04:56:31.320Z,17.67
2022-11-09T04:57:34.235Z,17.38
2022-11-09T04:58:36.599Z,16.13
2022-11-09T04:59:39.402Z,16.77
2022-11-09T05:00:41.403Z,17.80
2022-11-09T05:01:43.365Z,17.13
2022-11-09T05:02:45.227Z,17.60
2022-11-09T05:03:47.304Z,17.38
2022-11-09T05:04:49.408Z,17.25
2022-11-09T05:05:51.492Z,16.77
2022-11-09T05:06:53.441Z,16.38
2022-11-09T05:07:55.790Z,16.92
2022-11-09T05:08:58.981Z,16.80
2022-11-09T05:10:01.003Z,18.17
2022-11-09T05:11:05.554Z,17.88
2022-11-09T05:12:07.638Z,17.23
2022-11-09T05:13:12.696Z,17.08
2022-11-09T05:14:14.740Z,18.35
2022-11-09T05:15:16.984Z,17.50
2022-11-09T05:16:19.793Z,17.30
2022-11-09T05:17:21.974Z,17.67
2022-11-09T05:18:26.262Z,17.52
2022-11-09T05:19:29.329Z,17.98
2022-11-09T05:20:31.627Z,16.98
2022-11-09T05:21:33.628Z,16.48
2022-11-09T05:22:58.716Z,16.55
2022-11-09T05:24:00.825Z,16.20
2022-11-09T05:25:03.151Z,16.85
2022-11-09T05:26:06.711Z,16.58
2022-11-09T05:27:08.842Z,16.00
2022-11-09T05:28:11.611Z,17.13
2022-11-09T05:29:13.991Z,15.93
2022-11-09T05:30:16.122Z,17.48
2022-11-09T05:31:18.223Z,16.25
2022-11-09T05:32:20.885Z,17.20
2022-11-09T05:33:24.223Z,17.52
2022-11-09T05:34:26.824Z,17.42
2022-11-09T05:35:32.352Z,16.58
2022-11-09T05:36:34.595Z,16.65
2022-11-09T05:37:39.210Z,16.52
2022-11-09T05:38:41.328Z,16.92
2022-11-09T05:39:43.331Z,17.13
2022-11-09T05:40:48.608Z,17.67
2022-11-09T05:41:50.893Z,16.60
2022-11-09T05:42:53.531Z,17.35
2022-11-09T05:43:55.626Z,17.35
2022-11-09T05:44:58.163Z,16.40
2022-11-09T05:46:07.269Z,16.40
2022-11-09T05:47:09.297Z,16.50
2022-11-09T05:48:16.536Z,15.48
2022-11-09T05:49:18.578Z,15.85
2022-11-09T05:50:20.631Z,17.88
2022-11-09T05:51:30.290Z,17.00
2022-11-09T05:52:32.255Z,16.13
2022-11-09T05:53:34.471Z,17.20
2022-11-09T05:54:36.432Z,15.75
2022-11-09T05:55:39.682Z,14.23
2022-11-09T05:56:41.714Z,15.75
2022-11-09T05:57:43.671Z,16.45
2022-11-09T05:58:45.662Z,16.08
2022-11-09T05:59:47.864Z,15.57
2022-11-09T06:00:49.846Z,15.27
2022-11-09T06:01:52.066Z,14.60
2022-11-09T06:02:54.331Z,15.75
2022-11-09T06:03:56.242Z,15.00
2022-11-09T06:04:59.489Z,16.00
2022-11-09T06:06:08.881Z,14.40
2022-11-09T06:07:11.461Z,14.85
2022-11-09T06:08:15.634Z,14.00
2022-11-09T06:09:18.673Z,14.57
2022-11-09T06:10:20.794Z,15.02
2022-11-09T06:11:24.322Z,16.25
2022-11-09T06:12:28.627Z,14.77
2022-11-09T06:13:31.165Z,16.08
2022-11-09T06:14:33.358Z,15.25
2022-11-09T06:15:36.707Z,13.88
2022-11-09T06:16:38.676Z,18.42
2022-11-09T06:17:40.627Z,14.98
2022-11-09T06:18:42.682Z,14.88
2022-11-09T06:19:44.874Z,15.40
2022-11-09T06:20:47.083Z,15.05
2022-11-09T06:21:49.138Z,14.50
2022-11-09T06:23:03.143Z,13.85
2022-11-09T06:24:06.421Z,13.85
2022-11-09T06:25:08.739Z,14.68
2022-11-09T06:26:12.514Z,14.40
2022-11-09T06:27:14.731Z,15.02
2022-11-09T06:28:17.167Z,13.82
2022-11-09T06:29:20.183Z,14.70
2022-11-09T06:30:23.458Z,14.45
2022-11-09T06:31:25.447Z,14.32
2022-11-09T06:32:28.427Z,14.55
2022-11-09T06:33:32.238Z,14.98
2022-11-09T06:34:34.303Z,14.90
2022-11-09T06:35:36.245Z,14.85
2022-11-09T06:36:38.254Z,13.90
2022-11-09T06:37:40.345Z,14.88
2022-11-09T06:38:42.730Z,15.55
2022-11-09T06:39:45.544Z,14.57
2022-11-09T06:40:51.458Z,14.80
2022-11-09T06:41:53.622Z,14.90
2022-11-09T06:43:00.647Z,14.43
2022-11-09T06:44:02.838Z,14.00
2022-11-09T06:45:05.389Z,14.95
2022-11-09T06:46:08.149Z,14.15
2022-11-09T06:47:10.267Z,13.90
2022-11-09T06:48:12.688Z,13.68
2022-11-09T06:49:14.755Z,14.90
2022-11-09T06:50:17.709Z,14.57
2022-11-09T06:51:19.818Z,14.93
2022-11-09T06:52:21.848Z,18.50
2022-11-09T06:53:24.247Z,17.88
2022-11-09T06:54:33.759Z,15.02
2022-11-09T06:55:39.101Z,13.38
2022-11-09T06:56:41.058Z,15.30
2022-11-09T06:57:43.664Z,15.23
2022-11-09T06:58:52.907Z,15.02
2022-11-09T06:59:54.966Z,14.52
2022-11-09T07:01:03.351Z,13.70
2022-11-09T07:02:05.422Z,13.75
2022-11-09T07:03:07.471Z,14.90
2022-11-09T07:04:14.280Z,14.73
2022-11-09T07:05:19.771Z,14.40
2022-11-09T07:06:24.594Z,14.90
2022-11-09T07:07:28.345Z,14.32
2022-11-09T07:08:30.562Z,15.30
2022-11-09T07:09:33.222Z,16.63
2022-11-09T07:10:36.847Z,14.57
2022-11-09T07:11:39.267Z,14.77
2022-11-09T07:12:42.424Z,14.27
2022-11-09T07:13:44.786Z,14.23
2022-11-09T07:14:46.725Z,14.35
2022-11-09T07:15:55.024Z,14.02
2022-11-09T07:16:58.447Z,14.43
2022-11-09T07:18:02.007Z,13.48
2022-11-09T07:19:04.002Z,13.57
2022-11-09T07:20:10.773Z,14.90
2022-11-09T07:21:15.092Z,17.30
2022-11-09T07:22:17.946Z,14.55
2022-11-09T07:23:20.801Z,14.20
2022-11-09T07:24:23.687Z,14.75
2022-11-09T07:25:27.512Z,15.07
2022-11-09T07:26:29.931Z,14.88
2022-11-09T07:27:31.936Z,14.07
2022-11-09T07:28:34.076Z,14.73
2022-11-09T07:29:36.058Z,15.30
2022-11-09T07:30:38.737Z,14.27
2022-11-09T07:31:40.771Z,13.80
2022-11-09T07:34:06.368Z,14.95
2022-11-09T07:35:09.958Z,14.30
2022-11-09T07:36:14.612Z,15.18
2022-11-09T07:37:23.059Z,13.45
2022-11-09T07:38:29.114Z,13.75
2022-11-09T07:39:33.694Z,14.27
2022-11-09T07:40:36.448Z,13.75
2022-11-09T07:41:40.793Z,14.27
2022-11-09T07:42:42.773Z,13.82
2022-11-09T07:43:45.243Z,14.57
2022-11-09T07:44:48.392Z,14.48
2022-11-09T07:45:50.748Z,14.57
2022-11-09T07:46:52.839Z,15.25
2022-11-09T07:47:59.065Z,14.35
2022-11-09T07:49:01.537Z,14.40
2022-11-09T07:50:07.066Z,14.77
2022-11-09T07:51:09.312Z,14.70
2022-11-09T07:52:11.233Z,14.65
2022-11-09T07:53:15.176Z,14.60
2022-11-09T07:54:17.138Z,14.57
2022-11-09T07:55:19.517Z,13.60
2022-11-09T07:56:21.489Z,14.45
2022-11-09T07:57:24.700Z,14.23
2022-11-09T07:58:26.727Z,15.30
2022-11-09T07:59:28.828Z,14.45
2022-11-09T08:00:32.637Z,14.02
2022-11-09T08:01:35.052Z,14.52
2022-11-09T08:02:37.198Z,15.02
2022-11-09T08:03:39.220Z,13.57
2022-11-09T08:04:41.268Z,13.85
2022-11-09T08:05:43.459Z,14.32
2022-11-09T08:06:45.816Z,14.43
2022-11-09T08:07:48.041Z,14.60
2022-11-09T08:08:50.147Z,13.30
2022-11-09T08:09:52.189Z,14.13
2022-11-09T08:10:57.072Z,14.15
2022-11-09T08:11:59.032Z,14.45
2022-11-09T08:13:04.006Z,14.60
2022-11-09T08:14:07.149Z,14.15
2022-11-09T08:15:11.994Z,14.00
2022-11-09T08:16:14.297Z,14.25
2022-11-09T08:17:16.568Z,15.23
2022-11-09T08:18:20.981Z,14.57
2022-11-09T08:19:23.163Z,14.48
2022-11-09T08:20:28.062Z,15.55
2022-11-09T08:21:30.062Z,16.15
2022-11-09T08:22:32.202Z,15.25
2022-11-09T08:23:36.007Z,15.77
2022-11-09T08:24:38.234Z,15.30
2022-11-09T08:25:41.554Z,15.00
2022-11-09T08:26:43.515Z,15.25
2022-11-09T08:27:46.454Z,16.02
2022-11-09T08:28:48.642Z,16.15
2022-11-09T08:29:50.664Z,15.73
2022-11-09T08:30:58.047Z,16.20
2022-11-09T08:32:00.262Z,15.70
2022-11-09T08:33:03.710Z,16.50
2022-11-09T08:34:05.928Z,15.90
2022-11-09T08:35:12.801Z,15.93
2022-11-09T08:36:17.382Z,15.88
2022-11-09T08:37:19.580Z,16.83
2022-11-09T08:38:22.361Z,17.05
2022-11-09T08:39:24.676Z,15.95
2022-11-09T08:40:26.928Z,17.45
2022-11-09T08:41:29.300Z,16.98
2022-11-09T08:42:32.613Z,16.33
2022-11-09T08:43:35.253Z,16.50
2022-11-09T08:44:37.171Z,16.40
2022-11-09T08:45:41.171Z,15.80
2022-11-09T08:46:43.379Z,15.82
2022-11-09T08:47:46.871Z,15.57
2022-11-09T08:48:48.806Z,14.82
2022-11-09T08:49:50.837Z,16.40
2022-11-09T08:50:56.068Z,16.58
2022-11-09T08:51:59.269Z,15.88
2022-11-09T08:53:02.445Z,15.88
2022-11-09T08:54:04.606Z,15.40
2022-11-09T08:55:08.903Z,16.10
2022-11-09T08:56:18.559Z,16.35
2022-11-09T08:57:23.457Z,15.23
2022-11-09T08:58:27.512Z,14.30
2022-11-09T08:59:29.834Z,15.25
2022-11-09T09:00:31.978Z,15.52
2022-11-09T09:01:38.473Z,14.65
2022-11-09T09:02:40.715Z,15.27
2022-11-09T09:03:42.906Z,14.85
2022-11-09T09:04:45.147Z,14.02
2022-11-09T09:05:47.395Z,16.45
2022-11-09T09:06:49.687Z,13.85
2022-11-09T09:07:51.861Z,12.52
2022-11-09T09:08:53.999Z,12.48
2022-11-09T09:09:57.296Z,13.43
2022-11-09T09:11:06.274Z,12.48
2022-11-09T09:12:10.564Z,12.35
2022-11-09T09:13:12.605Z,13.27
2022-11-09T09:14:15.858Z,12.38
2022-11-09T09:15:17.912Z,13.77
2022-11-09T09:16:19.962Z,13.60
2022-11-09T09:17:21.981Z,13.52
2022-11-09T09:18:24.555Z,13.25
2022-11-09T09:19:26.643Z,12.95
2022-11-09T09:20:29.250Z,12.07
2022-11-09T09:21:31.436Z,13.07
2022-11-09T09:22:35.857Z,12.68
2022-11-09T09:23:39.075Z,13.07
2022-11-09T09:24:41.347Z,12.10
2022-11-09T09:25:44.100Z,12.23
2022-11-09T09:26:46.410Z,13.07
2022-11-09T09:27:48.511Z,13.10
2022-11-09T09:28:51.822Z,13.07
2022-11-09T09:29:54.014Z,12.50
2022-11-09T09:30:59.839Z,12.40
2022-11-09T09:32:01.799Z,12.32
2022-11-09T09:33:03.950Z,13.77
2022-11-09T09:34:08.583Z,13.20
2022-11-09T09:35:10.602Z,13.93
2022-11-09T09:36:18.337Z,12.68
2022-11-09T09:37:20.331Z,12.50
2022-11-09T09:38:22.775Z,12.23
2022-11-09T09:39:25.022Z,12.80
2022-11-09T09:40:37.160Z,13.23
2022-11-09T09:42:01.475Z,12.88
2022-11-09T09:43:05.314Z,13.40
2022-11-09T09:44:14.313Z,12.95
2022-11-09T09:46:38.015Z,13.23
2022-11-09T09:48:02.756Z,14.10
2022-11-09T09:49:14.818Z,13.43
2022-11-09T09:50:27.113Z,14.65
2022-11-09T09:51:34.718Z,14.43
2022-11-09T09:53:25.477Z,14.43
2022-11-09T09:54:30.301Z,14.50
2022-11-09T09:56:40.649Z,14.55
2022-11-09T09:57:47.950Z,15.20
2022-11-09T09:58:58.204Z,15.00
2022-11-09T10:00:08.418Z,14.85
2022-11-09T10:01:50.888Z,14.98
2022-11-09T10:02:54.175Z,15.40
2022-11-09T10:03:56.902Z,16.33
2022-11-09T10:05:01.871Z,16.25
2022-11-09T10:06:09.507Z,16.33
2022-11-09T10:07:36.277Z,15.95
2022-11-09T10:08:54.613Z,16.45
2022-11-09T10:10:08.915Z,16.25
2022-11-09T10:11:50.251Z,15.45
2022-11-09T10:13:20.183Z,15.82
2022-11-09T10:14:42.868Z,15.70
2022-11-09T10:15:57.165Z,15.82
2022-11-09T10:17:14.710Z,18.08
2022-11-09T10:18:30.712Z,15.68
2022-11-09T10:19:51.387Z,15.88
2022-11-09T10:21:10.499Z,16.27
2022-11-09T10:22:45.874Z,15.85
2022-11-09T10:24:04.768Z,16.27
2022-11-09T10:26:51.467Z,15.00
2022-11-09T10:28:02.577Z,15.32
2022-11-09T10:29:26.183Z,15.88
2022-11-09T10:30:30.464Z,16.85
2022-11-09T10:31:34.779Z,17.27
2022-11-09T10:32:36.963Z,15.95
2022-11-09T10:33:39.332Z,16.92
2022-11-09T10:34:53.239Z,17.40
2022-11-09T10:36:33.270Z,16.48
2022-11-09T10:37:40.724Z,15.77
2022-11-09T10:38:47.255Z,16.42
2022-11-09T10:40:19.060Z,16.77
2022-11-09T10:41:44.389Z,16.80
2022-11-09T10:43:13.973Z,16.08
2022-11-09T10:44:34.860Z,15.10
2022-11-09T10:46:05.180Z,16.92
2022-11-09T10:47:26.619Z,17.88
2022-11-09T10:48:46.978Z,15.80
2022-11-09T10:50:14.795Z,16.17
2022-11-09T10:51:41.254Z,15.50
2022-11-09T10:53:11.322Z,14.88
2022-11-09T10:54:35.481Z,15.73
2022-11-09T10:56:04.953Z,14.50
2022-11-09T10:57:26.061Z,15.52
2022-11-09T10:58:52.023Z,14.93
2022-11-09T11:00:19.881Z,14.57
2022-11-09T11:01:40.649Z,15.07
2022-11-09T11:03:12.070Z,15.05
2022-11-09T11:04:33.194Z,15.05
2022-11-09T11:06:03.318Z,14.75
2022-11-09T11:07:25.413Z,14.60
2022-11-09T11:08:49.277Z,14.68
2022-11-09T11:10:16.197Z,15.80
2022-11-09T11:11:39.151Z,15.13
2022-11-09T11:13:02.327Z,15.68
2022-11-09T11:14:27.867Z,14.98
2022-11-09T11:15:49.385Z,15.05
2022-11-09T11:17:35.189Z,16.23
2022-11-09T11:18:57.013Z,15.45
2022-11-09T11:20:33.913Z,14.93
2022-11-09T11:22:12.663Z,15.48
2022-11-09T11:23:37.020Z,15.77
2022-11-09T11:25:10.131Z,17.50
2022-11-09T11:27:10.387Z,15.73
2022-11-09T11:28:49.402Z,15.38
2022-11-09T11:31:31.367Z,16.35
2022-11-09T11:32:52.256Z,16.38
2022-11-09T11:34:32.150Z,15.60
2022-11-09T11:36:03.958Z,15.35
2022-11-09T11:38:01.254Z,15.32
2022-11-09T11:39:31.205Z,15.68
2022-11-09T11:41:13.003Z,15.00
2022-11-09T11:42:51.967Z,15.40
2022-11-09T11:45:26.054Z,15.60
2022-11-09T11:46:47.415Z,15.25
2022-11-09T11:48:28.273Z,16.13
2022-11-09T11:49:56.672Z,15.57
2022-11-09T11:51:47.294Z,15.65
2022-11-09T11:53:10.335Z,15.25
2022-11-09T11:55:07.797Z,15.90
2022-11-09T11:56:47.511Z,14.88
2022-11-09T11:58:30.277Z,13.80
2022-11-09T11:59:53.307Z,13.75
2022-11-09T12:01:35.623Z,14.35
2022-11-09T12:03:21.045Z,13.80
2022-11-09T12:04:48.179Z,13.50
2022-11-09T12:06:30.661Z,14.27
2022-11-09T12:08:18.687Z,13.15
2022-11-09T12:09:49.385Z,12.85
2022-11-09T12:11:31.544Z,13.98
2022-11-09T12:13:06.823Z,14.10
2022-11-09T12:14:29.711Z,14.07
2022-11-09T12:16:04.504Z,14.60
2022-11-09T12:17:43.783Z,14.00
2022-11-09T12:19:27.694Z,13.55
2022-11-09T12:21:24.432Z,14.05
2022-11-09T12:22:53.586Z,13.50
2022-11-09T12:24:24.176Z,13.57
2022-11-09T12:26:24.078Z,13.48
2022-11-09T12:28:08.538Z,13.25
2022-11-09T12:29:56.917Z,13.55
2022-11-09T12:31:54.727Z,13.68
2022-11-09T12:33:44.430Z,14.18
2022-11-09T12:35:11.329Z,12.32
2022-11-09T12:36:53.488Z,13.18
2022-11-09T12:38:36.892Z,13.65
2022-11-09T12:40:21.313Z,13.00
2022-11-09T12:41:43.599Z,13.10
2022-11-09T12:43:27.407Z,13.32
2022-11-09T12:45:12.667Z,12.98
2022-11-09T12:46:40.143Z,12.90
2022-11-09T12:48:31.107Z,12.77
2022-11-09T12:49:51.824Z,12.68
2022-11-09T12:51:12.451Z,13.20
2022-11-09T12:52:33.206Z,12.52
2022-11-09T12:53:56.522Z,12.80
2022-11-09T12:55:21.595Z,12.10
2022-11-09T12:56:55.671Z,12.43
2022-11-09T12:58:26.460Z,12.82
2022-11-09T12:59:55.488Z,13.00
2022-11-09T13:01:34.619Z,14.20
2022-11-09T13:02:58.106Z,12.40
2022-11-09T13:04:21.217Z,12.05
2022-11-09T13:05:43.309Z,12.35
2022-11-09T13:07:07.315Z,11.80
2022-11-09T13:08:31.582Z,12.10
2022-11-09T13:09:57.470Z,12.32
2022-11-09T13:11:17.827Z,12.73
2022-11-09T13:12:42.931Z,12.32
2022-11-09T13:14:29.261Z,12.98
2022-11-09T13:16:33.331Z,11.93
2022-11-09T13:18:06.403Z,12.20
2022-11-09T13:19:36.159Z,13.43
2022-11-09T13:21:17.621Z,12.55
2022-11-09T13:22:57.773Z,13.00
2022-11-09T13:24:30.207Z,13.35
2022-11-09T13:26:30.812Z,12.48
2022-11-09T13:27:51.384Z,13.95
2022-11-09T13:29:30.428Z,13.20
2022-11-09T13:30:51.353Z,12.32
2022-11-09T13:32:14.380Z,12.27
2022-11-09T13:33:36.283Z,13.35
2022-11-09T13:35:01.930Z,12.85
2022-11-09T13:37:59.213Z,14.00
2022-11-09T13:39:29.846Z,13.30
2022-11-09T13:40:50.945Z,13.80
2022-11-09T13:42:31.918Z,14.18
2022-11-09T13:44:14.347Z,14.15
2022-11-09T13:45:47.368Z,12.95
2022-11-09T13:47:25.893Z,12.77
2022-11-09T13:48:49.071Z,14.13
2022-11-09T13:50:22.544Z,13.63
2022-11-09T13:51:48.224Z,14.10
2022-11-09T13:53:31.907Z,13.60
2022-11-09T13:54:54.858Z,13.90
2022-11-09T13:56:30.009Z,13.77
2022-11-09T13:57:51.919Z,13.82
2022-11-09T13:59:28.174Z,14.00
2022-11-09T14:00:49.426Z,14.10
2022-11-09T14:02:19.110Z,13.68
2022-11-09T14:03:40.152Z,13.15
2022-11-09T14:05:02.035Z,13.93
2022-11-09T14:06:23.010Z,14.60
2022-11-09T14:07:43.993Z,14.48
2022-11-09T14:09:04.811Z,14.68
2022-11-09T14:11:19.782Z,12.55
2022-11-09T14:13:07.394Z,13.27
2022-11-09T14:14:49.175Z,12.75
2022-11-09T14:16:22.443Z,13.80
2022-11-09T14:18:05.578Z,13.70
2022-11-09T14:19:58.771Z,13.63
2022-11-09T14:21:34.906Z,12.93
2022-11-09T14:22:56.022Z,14.10
2022-11-09T14:24:41.018Z,13.55
2022-11-09T14:26:20.955Z,14.20
2022-11-09T14:27:51.505Z,13.88
2022-11-09T14:29:23.616Z,13.80
2022-11-09T14:30:45.471Z,14.43
2022-11-09T14:32:37.543Z,14.43
2022-11-09T14:34:06.274Z,15.88
2022-11-09T14:36:52.843Z,14.38
2022-11-09T14:38:29.653Z,14.77
2022-11-09T14:39:52.602Z,14.82
2022-11-09T14:41:23.359Z,16.25
2022-11-09T14:42:50.029Z,15.38
2022-11-09T14:44:20.621Z,15.60
2022-11-09T14:45:53.516Z,14.77
2022-11-09T14:47:18.655Z,14.75
2022-11-09T14:48:43.278Z,15.38
2022-11-09T14:50:15.734Z,15.18
2022-11-09T14:51:40.594Z,15.48
2022-11-09T14:53:02.689Z,15.15
2022-11-09T14:54:27.463Z,20.13
2022-11-09T14:55:53.693Z,15.07
2022-11-09T14:57:16.651Z,16.15
2022-11-09T14:58:41.860Z,14.55
2022-11-09T15:00:02.731Z,15.48
2022-11-09T15:01:26.875Z,15.00
2022-11-09T15:02:47.459Z,15.80
2022-11-09T15:04:10.465Z,16.45
2022-11-09T15:05:39.931Z,16.13
2022-11-09T15:07:04.137Z,16.65
2022-11-09T15:08:25.455Z,15.93
2022-11-09T15:09:48.944Z,15.80
2022-11-09T15:11:09.971Z,16.80
2022-11-09T15:12:31.632Z,16.67
2022-11-09T15:13:52.126Z,17.02
2022-11-09T15:15:27.213Z,16.85
2022-11-09T15:16:49.197Z,16.05
2022-11-09T15:18:26.917Z,16.02
2022-11-09T15:20:00.078Z,15.75
2022-11-09T15:21:33.502Z,19.88
2022-11-09T15:22:55.754Z,16.70
2022-11-09T15:24:19.874Z,16.25
2022-11-09T15:25:43.649Z,16.63
2022-11-09T15:27:42.302Z,16.58
2022-11-09T15:29:41.262Z,16.13
2022-11-09T15:31:02.901Z,16.58